sensor_id;sensor_type;location;lat;lon;timestamp;temperature;humidity
5134;DHT22;2585;48.696;10.066;2022-07-29T00:02:25;17.40;92.30
5134;DHT22;2585;48.696;10.066;2022-07-29T00:04:52;17.40;92.50
5134;DHT22;2585;48.696;10.066;2022-07-29T00:07:19;17.40;92.70
5134;DHT22;2585;48.696;10.066;2022-07-29T00:09:46;17.30;92.70
5134;DHT22;2585;48.696;10.066;2022-07-29T00:12:19;17.40;92.80
5134;DHT22;2585;48.696;10.066;2022-07-29T00:14:53;17.30;92.60
5134;DHT22;2585;48.696;10.066;2022-07-29T00:17:20;17.30;92.50
5134;DHT22;2585;48.696;10.066;2022-07-29T00:19:47;17.40;92.70
5134;DHT22;2585;48.696;10.066;2022-07-29T00:22:15;17.30;92.50
5134;DHT22;2585;48.696;10.066;2022-07-29T00:24:41;17.40;92.60
5134;DHT22;2585;48.696;10.066;2022-07-29T00:27:08;17.40;92.70
5134;DHT22;2585;48.696;10.066;2022-07-29T00:29:35;17.40;92.70
5134;DHT22;2585;48.696;10.066;2022-07-29T00:32:02;17.30;92.60
5134;DHT22;2585;48.696;10.066;2022-07-29T00:34:30;17.30;92.70
5134;DHT22;2585;48.696;10.066;2022-07-29T00:37:15;17.30;92.50
5134;DHT22;2585;48.696;10.066;2022-07-29T00:39:42;17.40;92.30
5134;DHT22;2585;48.696;10.066;2022-07-29T00:42:09;17.30;92.00
5134;DHT22;2585;48.696;10.066;2022-07-29T00:44:40;17.30;90.90
5134;DHT22;2585;48.696;10.066;2022-07-29T00:47:09;17.30;90.90
5134;DHT22;2585;48.696;10.066;2022-07-29T00:49:36;17.20;91.60
5134;DHT22;2585;48.696;10.066;2022-07-29T00:52:05;17.20;92.30
5134;DHT22;2585;48.696;10.066;2022-07-29T00:54:33;17.20;92.30
5134;DHT22;2585;48.696;10.066;2022-07-29T00:57:01;17.20;92.60
5134;DHT22;2585;48.696;10.066;2022-07-29T00:59:28;17.20;92.60
5134;DHT22;2585;48.696;10.066;2022-07-29T01:02:04;17.20;92.70
5134;DHT22;2585;48.696;10.066;2022-07-29T01:04:31;17.10;92.80
5134;DHT22;2585;48.696;10.066;2022-07-29T01:07:01;17.20;93.00
5134;DHT22;2585;48.696;10.066;2022-07-29T01:09:28;17.20;93.10
5134;DHT22;2585;48.696;10.066;2022-07-29T01:12:18;17.20;93.20
5134;DHT22;2585;48.696;10.066;2022-07-29T01:14:47;17.10;93.20
5134;DHT22;2585;48.696;10.066;2022-07-29T01:20:04;17.00;93.30
5134;DHT22;2585;48.696;10.066;2022-07-29T01:31:00;17.20;93.30
5134;DHT22;2585;48.696;10.066;2022-07-29T01:33:35;17.20;93.30
5134;DHT22;2585;48.696;10.066;2022-07-29T01:36:22;17.20;93.20
5134;DHT22;2585;48.696;10.066;2022-07-29T01:38:58;17.10;93.30
5134;DHT22;2585;48.696;10.066;2022-07-29T01:41:26;17.10;93.40
5134;DHT22;2585;48.696;10.066;2022-07-29T01:43:59;17.00;93.30
5134;DHT22;2585;48.696;10.066;2022-07-29T01:46:50;16.90;93.40
5134;DHT22;2585;48.696;10.066;2022-07-29T01:49:24;16.90;93.50
5134;DHT22;2585;48.696;10.066;2022-07-29T01:51:56;16.90;93.50
5134;DHT22;2585;48.696;10.066;2022-07-29T01:54:47;16.90;93.50
5134;DHT22;2585;48.696;10.066;2022-07-29T01:57:16;16.90;93.40
5134;DHT22;2585;48.696;10.066;2022-07-29T01:59:47;16.90;93.40
5134;DHT22;2585;48.696;10.066;2022-07-29T02:02:16;16.90;93.30
5134;DHT22;2585;48.696;10.066;2022-07-29T02:04:45;16.90;93.30
5134;DHT22;2585;48.696;10.066;2022-07-29T02:07:20;16.70;93.30
5134;DHT22;2585;48.696;10.066;2022-07-29T02:09:49;16.80;93.30
5134;DHT22;2585;48.696;10.066;2022-07-29T02:12:18;16.80;93.30
5134;DHT22;2585;48.696;10.066;2022-07-29T02:14:49;16.80;93.30
5134;DHT22;2585;48.696;10.066;2022-07-29T02:17:22;16.80;93.30
5134;DHT22;2585;48.696;10.066;2022-07-29T02:19:52;16.70;93.30
5134;DHT22;2585;48.696;10.066;2022-07-29T02:22:23;16.80;93.30
5134;DHT22;2585;48.696;10.066;2022-07-29T02:24:51;16.80;93.30
5134;DHT22;2585;48.696;10.066;2022-07-29T02:27:19;16.80;93.20
5134;DHT22;2585;48.696;10.066;2022-07-29T02:29:48;16.70;93.20
5134;DHT22;2585;48.696;10.066;2022-07-29T02:32:16;16.70;93.20
5134;DHT22;2585;48.696;10.066;2022-07-29T02:34:44;16.70;93.20
5134;DHT22;2585;48.696;10.066;2022-07-29T02:37:16;16.70;93.20
5134;DHT22;2585;48.696;10.066;2022-07-29T02:39:45;16.70;93.20
5134;DHT22;2585;48.696;10.066;2022-07-29T02:42:16;16.70;93.20
5134;DHT22;2585;48.696;10.066;2022-07-29T02:44:43;16.70;93.20
5134;DHT22;2585;48.696;10.066;2022-07-29T02:49:54;16.60;93.20
5134;DHT22;2585;48.696;10.066;2022-07-29T02:52:26;16.60;93.30
5134;DHT22;2585;48.696;10.066;2022-07-29T02:57:46;16.60;93.30
5134;DHT22;2585;48.696;10.066;2022-07-29T03:00:22;16.50;93.20
5134;DHT22;2585;48.696;10.066;2022-07-29T03:02:52;16.40;93.10
5134;DHT22;2585;48.696;10.066;2022-07-29T03:05:21;16.40;93.10
5134;DHT22;2585;48.696;10.066;2022-07-29T03:07:54;16.30;93.10
5134;DHT22;2585;48.696;10.066;2022-07-29T03:10:23;16.30;93.10
5134;DHT22;2585;48.696;10.066;2022-07-29T03:12:51;16.10;93.10
5134;DHT22;2585;48.696;10.066;2022-07-29T03:15:19;16.10;93.10
5134;DHT22;2585;48.696;10.066;2022-07-29T03:17:50;16.10;93.10
5134;DHT22;2585;48.696;10.066;2022-07-29T03:20:17;16.10;93.10
5134;DHT22;2585;48.696;10.066;2022-07-29T03:22:45;16.10;93.10
5134;DHT22;2585;48.696;10.066;2022-07-29T03:25:16;16.00;93.10
5134;DHT22;2585;48.696;10.066;2022-07-29T03:27:43;16.00;93.00
5134;DHT22;2585;48.696;10.066;2022-07-29T03:30:11;15.90;93.00
5134;DHT22;2585;48.696;10.066;2022-07-29T03:32:44;15.90;92.90
5134;DHT22;2585;48.696;10.066;2022-07-29T03:35:11;15.80;92.90
5134;DHT22;2585;48.696;10.066;2022-07-29T03:37:38;15.80;92.80
5134;DHT22;2585;48.696;10.066;2022-07-29T03:40:07;15.70;92.80
5134;DHT22;2585;48.696;10.066;2022-07-29T03:42:37;15.70;92.80
5134;DHT22;2585;48.696;10.066;2022-07-29T03:45:09;15.60;92.80
5134;DHT22;2585;48.696;10.066;2022-07-29T03:47:42;15.50;92.70
5134;DHT22;2585;48.696;10.066;2022-07-29T03:50:18;15.50;92.70
5134;DHT22;2585;48.696;10.066;2022-07-29T03:52:47;15.50;92.70
5134;DHT22;2585;48.696;10.066;2022-07-29T03:55:15;15.50;92.60
5134;DHT22;2585;48.696;10.066;2022-07-29T03:57:44;15.40;92.60
5134;DHT22;2585;48.696;10.066;2022-07-29T04:00:12;15.40;92.60
5134;DHT22;2585;48.696;10.066;2022-07-29T04:02:39;15.40;92.60
5134;DHT22;2585;48.696;10.066;2022-07-29T04:05:12;15.30;92.60
5134;DHT22;2585;48.696;10.066;2022-07-29T04:07:46;15.30;92.60
5134;DHT22;2585;48.696;10.066;2022-07-29T04:10:14;15.30;92.60
5134;DHT22;2585;48.696;10.066;2022-07-29T04:12:42;15.20;92.60
5134;DHT22;2585;48.696;10.066;2022-07-29T04:15:09;15.20;92.70
5134;DHT22;2585;48.696;10.066;2022-07-29T04:17:37;15.10;92.70
5134;DHT22;2585;48.696;10.066;2022-07-29T04:20:04;15.10;92.70
5134;DHT22;2585;48.696;10.066;2022-07-29T04:22:31;15.10;92.70
5134;DHT22;2585;48.696;10.066;2022-07-29T04:24:58;15.10;92.70
5134;DHT22;2585;48.696;10.066;2022-07-29T04:27:30;15.00;92.70
5134;DHT22;2585;48.696;10.066;2022-07-29T04:29:57;15.00;92.70
5134;DHT22;2585;48.696;10.066;2022-07-29T04:32:24;15.00;92.80
5134;DHT22;2585;48.696;10.066;2022-07-29T04:34:51;15.00;92.80
5134;DHT22;2585;48.696;10.066;2022-07-29T04:37:19;15.10;92.80
5134;DHT22;2585;48.696;10.066;2022-07-29T04:39:46;15.10;92.80
5134;DHT22;2585;48.696;10.066;2022-07-29T04:42:12;15.10;92.80
5134;DHT22;2585;48.696;10.066;2022-07-29T04:44:39;15.10;92.80
5134;DHT22;2585;48.696;10.066;2022-07-29T04:47:09;15.20;92.80
5134;DHT22;2585;48.696;10.066;2022-07-29T04:49:38;15.30;92.90
5134;DHT22;2585;48.696;10.066;2022-07-29T04:52:05;15.40;93.00
5134;DHT22;2585;48.696;10.066;2022-07-29T04:54:32;15.50;93.10
5134;DHT22;2585;48.696;10.066;2022-07-29T04:56:59;15.50;93.10
5134;DHT22;2585;48.696;10.066;2022-07-29T04:59:26;15.60;93.10
5134;DHT22;2585;48.696;10.066;2022-07-29T05:01:53;15.50;93.10
5134;DHT22;2585;48.696;10.066;2022-07-29T05:04:20;15.50;93.10
5134;DHT22;2585;48.696;10.066;2022-07-29T05:06:47;15.60;93.10
5134;DHT22;2585;48.696;10.066;2022-07-29T05:09:14;15.50;93.10
5134;DHT22;2585;48.696;10.066;2022-07-29T05:11:41;15.50;93.20
5134;DHT22;2585;48.696;10.066;2022-07-29T05:14:08;15.60;93.20
5134;DHT22;2585;48.696;10.066;2022-07-29T05:16:35;15.70;93.30
5134;DHT22;2585;48.696;10.066;2022-07-29T05:19:02;15.80;93.30
5134;DHT22;2585;48.696;10.066;2022-07-29T05:21:28;15.80;93.30
5134;DHT22;2585;48.696;10.066;2022-07-29T05:23:55;15.80;93.30
5134;DHT22;2585;48.696;10.066;2022-07-29T05:26:22;15.90;93.30
5134;DHT22;2585;48.696;10.066;2022-07-29T05:28:49;15.90;93.30
5134;DHT22;2585;48.696;10.066;2022-07-29T05:31:16;16.10;93.40
5134;DHT22;2585;48.696;10.066;2022-07-29T05:33:43;16.20;93.40
5134;DHT22;2585;48.696;10.066;2022-07-29T05:36:10;16.20;93.30
5134;DHT22;2585;48.696;10.066;2022-07-29T05:38:38;16.30;93.40
5134;DHT22;2585;48.696;10.066;2022-07-29T05:41:05;16.40;93.40
5134;DHT22;2585;48.696;10.066;2022-07-29T05:43:32;16.30;93.30
5134;DHT22;2585;48.696;10.066;2022-07-29T05:45:59;16.40;93.40
5134;DHT22;2585;48.696;10.066;2022-07-29T05:48:26;16.50;93.40
5134;DHT22;2585;48.696;10.066;2022-07-29T05:50:54;16.50;93.30
5134;DHT22;2585;48.696;10.066;2022-07-29T05:53:21;16.40;93.30
5134;DHT22;2585;48.696;10.066;2022-07-29T05:55:49;16.40;93.30
5134;DHT22;2585;48.696;10.066;2022-07-29T05:58:16;16.50;93.30
5134;DHT22;2585;48.696;10.066;2022-07-29T06:00:43;16.50;93.30
5134;DHT22;2585;48.696;10.066;2022-07-29T06:03:10;16.60;93.40
5134;DHT22;2585;48.696;10.066;2022-07-29T06:05:37;16.80;93.40
5134;DHT22;2585;48.696;10.066;2022-07-29T06:08:04;16.90;93.40
5134;DHT22;2585;48.696;10.066;2022-07-29T06:10:37;16.90;93.30
5134;DHT22;2585;48.696;10.066;2022-07-29T06:13:04;17.00;93.40
5134;DHT22;2585;48.696;10.066;2022-07-29T06:15:31;17.30;93.50
5134;DHT22;2585;48.696;10.066;2022-07-29T06:17:58;17.50;93.50
5134;DHT22;2585;48.696;10.066;2022-07-29T06:20:28;17.80;93.60
5134;DHT22;2585;48.696;10.066;2022-07-29T06:22:57;17.80;93.50
5134;DHT22;2585;48.696;10.066;2022-07-29T06:25:24;17.80;93.30
5134;DHT22;2585;48.696;10.066;2022-07-29T06:27:51;18.10;93.40
5134;DHT22;2585;48.696;10.066;2022-07-29T06:30:18;18.10;93.00
5134;DHT22;2585;48.696;10.066;2022-07-29T06:32:45;18.30;93.00
5134;DHT22;2585;48.696;10.066;2022-07-29T06:35:12;18.60;93.10
5134;DHT22;2585;48.696;10.066;2022-07-29T06:37:59;18.80;92.80
5134;DHT22;2585;48.696;10.066;2022-07-29T06:40:26;18.80;91.90
5134;DHT22;2585;48.696;10.066;2022-07-29T06:43:11;18.90;91.40
5134;DHT22;2585;48.696;10.066;2022-07-29T06:45:38;19.10;90.60
5134;DHT22;2585;48.696;10.066;2022-07-29T06:48:08;18.90;87.90
5134;DHT22;2585;48.696;10.066;2022-07-29T06:50:35;18.80;86.90
5134;DHT22;2585;48.696;10.066;2022-07-29T06:53:02;18.70;88.50
5134;DHT22;2585;48.696;10.066;2022-07-29T06:55:29;18.80;87.70
5134;DHT22;2585;48.696;10.066;2022-07-29T06:57:56;18.60;85.70
5134;DHT22;2585;48.696;10.066;2022-07-29T07:00:23;18.50;86.10
5134;DHT22;2585;48.696;10.066;2022-07-29T07:02:50;18.50;89.00
5134;DHT22;2585;48.696;10.066;2022-07-29T07:05:17;18.50;88.30
5134;DHT22;2585;48.696;10.066;2022-07-29T07:07:44;18.60;88.60
5134;DHT22;2585;48.696;10.066;2022-07-29T07:10:10;18.60;87.70
5134;DHT22;2585;48.696;10.066;2022-07-29T07:12:37;18.70;87.40
5134;DHT22;2585;48.696;10.066;2022-07-29T07:15:05;18.80;90.20
5134;DHT22;2585;48.696;10.066;2022-07-29T07:17:32;18.70;85.60
5134;DHT22;2585;48.696;10.066;2022-07-29T07:19:59;18.80;83.40
5134;DHT22;2585;48.696;10.066;2022-07-29T07:22:25;18.70;77.50
5134;DHT22;2585;48.696;10.066;2022-07-29T07:24:53;18.90;83.50
5134;DHT22;2585;48.696;10.066;2022-07-29T07:27:20;18.90;78.20
5134;DHT22;2585;48.696;10.066;2022-07-29T07:29:47;18.80;71.10
5134;DHT22;2585;48.696;10.066;2022-07-29T07:32:14;19.00;72.60
5134;DHT22;2585;48.696;10.066;2022-07-29T07:34:43;19.30;72.20
5134;DHT22;2585;48.696;10.066;2022-07-29T07:37:10;19.30;66.30
5134;DHT22;2585;48.696;10.066;2022-07-29T07:39:36;19.50;59.10
5134;DHT22;2585;48.696;10.066;2022-07-29T07:42:03;20.10;37.40
5134;DHT22;2585;48.696;10.066;2022-07-29T07:44:30;20.10;26.00
5134;DHT22;2585;48.696;10.066;2022-07-29T07:46:57;19.90;35.70
5134;DHT22;2585;48.696;10.066;2022-07-29T07:49:38;19.90;45.40
5134;DHT22;2585;48.696;10.066;2022-07-29T07:52:07;20.20;28.10
5134;DHT22;2585;48.696;10.066;2022-07-29T07:54:33;20.50;22.50
5134;DHT22;2585;48.696;10.066;2022-07-29T07:57:00;20.30;14.10
5134;DHT22;2585;48.696;10.066;2022-07-29T07:59:27;20.30;17.00
5134;DHT22;2585;48.696;10.066;2022-07-29T08:01:54;20.50;13.90
5134;DHT22;2585;48.696;10.066;2022-07-29T08:04:22;20.40;12.90
5134;DHT22;2585;48.696;10.066;2022-07-29T08:06:55;20.60;8.20
5134;DHT22;2585;48.696;10.066;2022-07-29T08:09:24;21.00;14.50
5134;DHT22;2585;48.696;10.066;2022-07-29T08:11:57;21.40;8.40
5134;DHT22;2585;48.696;10.066;2022-07-29T08:14:25;21.70;9.30
5134;DHT22;2585;48.696;10.066;2022-07-29T08:16:52;22.10;6.70
5134;DHT22;2585;48.696;10.066;2022-07-29T08:19:19;22.10;1.10
5134;DHT22;2585;48.696;10.066;2022-07-29T08:21:46;22.00;1.10
5134;DHT22;2585;48.696;10.066;2022-07-29T08:24:12;22.10;1.00
5134;DHT22;2585;48.696;10.066;2022-07-29T08:26:58;21.60;1.00
5134;DHT22;2585;48.696;10.066;2022-07-29T08:29:25;21.20;1.00
5134;DHT22;2585;48.696;10.066;2022-07-29T08:31:52;21.10;1.00
5134;DHT22;2585;48.696;10.066;2022-07-29T08:34:19;21.30;2.50
5134;DHT22;2585;48.696;10.066;2022-07-29T08:36:53;21.50;1.90
5134;DHT22;2585;48.696;10.066;2022-07-29T08:39:20;22.00;5.40
5134;DHT22;2585;48.696;10.066;2022-07-29T08:41:48;22.20;1.60
5134;DHT22;2585;48.696;10.066;2022-07-29T08:44:24;22.20;1.00
5134;DHT22;2585;48.696;10.066;2022-07-29T08:46:56;22.50;1.00
5134;DHT22;2585;48.696;10.066;2022-07-29T08:49:23;23.30;1.70
5134;DHT22;2585;48.696;10.066;2022-07-29T08:51:51;23.40;1.00
5134;DHT22;2585;48.696;10.066;2022-07-29T08:54:21;23.90;1.00
5134;DHT22;2585;48.696;10.066;2022-07-29T08:56:50;24.60;1.00
5134;DHT22;2585;48.696;10.066;2022-07-29T08:59:22;25.10;1.00
5134;DHT22;2585;48.696;10.066;2022-07-29T09:01:52;24.60;1.00
5134;DHT22;2585;48.696;10.066;2022-07-29T09:04:21;25.30;1.00
5134;DHT22;2585;48.696;10.066;2022-07-29T09:06:51;25.50;1.00
5134;DHT22;2585;48.696;10.066;2022-07-29T09:09:20;25.20;1.00
5134;DHT22;2585;48.696;10.066;2022-07-29T09:11:46;25.50;1.00
5134;DHT22;2585;48.696;10.066;2022-07-29T09:14:13;25.70;1.00
5134;DHT22;2585;48.696;10.066;2022-07-29T09:16:51;25.30;1.00
5134;DHT22;2585;48.696;10.066;2022-07-29T09:19:25;24.50;1.00
5134;DHT22;2585;48.696;10.066;2022-07-29T09:21:52;24.80;1.00
5134;DHT22;2585;48.696;10.066;2022-07-29T09:24:36;25.40;1.00
5134;DHT22;2585;48.696;10.066;2022-07-29T09:27:20;25.20;1.00
5134;DHT22;2585;48.696;10.066;2022-07-29T09:29:59;25.40;1.00
5134;DHT22;2585;48.696;10.066;2022-07-29T09:32:26;25.50;1.00
5134;DHT22;2585;48.696;10.066;2022-07-29T09:35:19;26.00;1.00
5134;DHT22;2585;48.696;10.066;2022-07-29T09:37:47;26.40;1.00
5134;DHT22;2585;48.696;10.066;2022-07-29T09:40:23;27.10;1.00
5134;DHT22;2585;48.696;10.066;2022-07-29T09:42:50;27.10;1.00
5134;DHT22;2585;48.696;10.066;2022-07-29T09:45:33;27.30;1.00
5134;DHT22;2585;48.696;10.066;2022-07-29T09:48:24;27.90;1.00
5134;DHT22;2585;48.696;10.066;2022-07-29T09:50:51;28.10;1.00
5134;DHT22;2585;48.696;10.066;2022-07-29T09:53:31;28.20;1.00
5134;DHT22;2585;48.696;10.066;2022-07-29T09:55:59;27.90;1.00
5134;DHT22;2585;48.696;10.066;2022-07-29T09:58:26;28.00;1.00
5134;DHT22;2585;48.696;10.066;2022-07-29T10:00:54;27.30;1.00
5134;DHT22;2585;48.696;10.066;2022-07-29T10:03:22;28.30;1.00
5134;DHT22;2585;48.696;10.066;2022-07-29T10:06:09;29.30;1.00
5134;DHT22;2585;48.696;10.066;2022-07-29T10:08:37;29.20;1.00
5134;DHT22;2585;48.696;10.066;2022-07-29T10:11:16;29.00;1.00
5134;DHT22;2585;48.696;10.066;2022-07-29T10:13:44;28.70;1.00
5134;DHT22;2585;48.696;10.066;2022-07-29T10:16:13;28.80;1.00
5134;DHT22;2585;48.696;10.066;2022-07-29T10:18:41;27.50;1.00
5134;DHT22;2585;48.696;10.066;2022-07-29T10:21:10;28.10;1.00
5134;DHT22;2585;48.696;10.066;2022-07-29T10:23:58;28.60;1.00
5134;DHT22;2585;48.696;10.066;2022-07-29T10:26:28;28.70;1.00
5134;DHT22;2585;48.696;10.066;2022-07-29T10:28:55;29.70;1.00
5134;DHT22;2585;48.696;10.066;2022-07-29T10:31:35;30.70;1.00
5134;DHT22;2585;48.696;10.066;2022-07-29T10:39:56;30.70;1.00
5134;DHT22;2585;48.696;10.066;2022-07-29T10:42:25;30.50;1.00
5134;DHT22;2585;48.696;10.066;2022-07-29T10:45:02;30.30;1.00
5134;DHT22;2585;48.696;10.066;2022-07-29T10:47:30;29.80;1.00
5134;DHT22;2585;48.696;10.066;2022-07-29T10:50:03;29.10;1.00
5134;DHT22;2585;48.696;10.066;2022-07-29T10:52:53;28.70;1.00
5134;DHT22;2585;48.696;10.066;2022-07-29T10:55:39;27.90;1.00
5134;DHT22;2585;48.696;10.066;2022-07-29T10:58:28;28.10;1.00
5134;DHT22;2585;48.696;10.066;2022-07-29T11:00:55;27.70;1.00
5134;DHT22;2585;48.696;10.066;2022-07-29T11:03:46;26.80;1.00
5134;DHT22;2585;48.696;10.066;2022-07-29T11:06:16;26.70;1.00
5134;DHT22;2585;48.696;10.066;2022-07-29T11:09:15;26.70;1.00
5134;DHT22;2585;48.696;10.066;2022-07-29T11:11:42;26.00;1.00
5134;DHT22;2585;48.696;10.066;2022-07-29T11:14:13;25.40;1.00
5134;DHT22;2585;48.696;10.066;2022-07-29T11:17:00;24.40;1.00
5134;DHT22;2585;48.696;10.066;2022-07-29T11:19:32;24.00;1.00
5134;DHT22;2585;48.696;10.066;2022-07-29T11:22:00;23.80;1.00
5134;DHT22;2585;48.696;10.066;2022-07-29T11:24:31;23.80;1.00
5134;DHT22;2585;48.696;10.066;2022-07-29T11:29:50;24.00;1.00
5134;DHT22;2585;48.696;10.066;2022-07-29T11:32:19;24.40;1.00
5134;DHT22;2585;48.696;10.066;2022-07-29T11:35:23;24.00;1.00
5134;DHT22;2585;48.696;10.066;2022-07-29T11:38:24;24.00;1.00
5134;DHT22;2585;48.696;10.066;2022-07-29T11:41:22;23.80;1.00
5134;DHT22;2585;48.696;10.066;2022-07-29T11:43:51;24.20;1.00
5134;DHT22;2585;48.696;10.066;2022-07-29T11:46:44;24.30;1.00
5134;DHT22;2585;48.696;10.066;2022-07-29T11:49:13;24.40;1.00
5134;DHT22;2585;48.696;10.066;2022-07-29T11:51:55;24.30;1.00
5134;DHT22;2585;48.696;10.066;2022-07-29T11:54:30;24.00;1.00
5134;DHT22;2585;48.696;10.066;2022-07-29T11:56:58;24.20;1.00
5134;DHT22;2585;48.696;10.066;2022-07-29T11:59:25;23.60;1.00
5134;DHT22;2585;48.696;10.066;2022-07-29T12:02:00;23.50;1.00
5134;DHT22;2585;48.696;10.066;2022-07-29T12:07:30;23.30;1.00
5134;DHT22;2585;48.696;10.066;2022-07-29T12:10:00;23.10;1.00
5134;DHT22;2585;48.696;10.066;2022-07-29T12:12:28;23.30;1.00
5134;DHT22;2585;48.696;10.066;2022-07-29T12:14:55;22.90;1.00
5134;DHT22;2585;48.696;10.066;2022-07-29T12:17:33;22.60;1.00
5134;DHT22;2585;48.696;10.066;2022-07-29T12:20:02;22.60;1.00
5134;DHT22;2585;48.696;10.066;2022-07-29T12:22:35;22.20;1.00
5134;DHT22;2585;48.696;10.066;2022-07-29T12:25:06;21.50;1.00
5134;DHT22;2585;48.696;10.066;2022-07-29T12:28:02;21.30;1.00
5134;DHT22;2585;48.696;10.066;2022-07-29T12:30:44;21.10;1.00
5134;DHT22;2585;48.696;10.066;2022-07-29T12:33:13;21.00;1.00
5134;DHT22;2585;48.696;10.066;2022-07-29T12:35:42;21.00;1.00
5134;DHT22;2585;48.696;10.066;2022-07-29T12:38:20;20.90;1.00
5134;DHT22;2585;48.696;10.066;2022-07-29T12:40:48;21.00;1.00
5134;DHT22;2585;48.696;10.066;2022-07-29T12:43:18;20.90;1.00
5134;DHT22;2585;48.696;10.066;2022-07-29T12:45:48;20.90;1.00
5134;DHT22;2585;48.696;10.066;2022-07-29T12:48:15;20.70;1.00
5134;DHT22;2585;48.696;10.066;2022-07-29T12:50:57;20.50;1.00
5134;DHT22;2585;48.696;10.066;2022-07-29T12:53:25;20.60;1.00
5134;DHT22;2585;48.696;10.066;2022-07-29T12:55:54;20.60;1.00
5134;DHT22;2585;48.696;10.066;2022-07-29T13:01:10;20.60;1.00
5134;DHT22;2585;48.696;10.066;2022-07-29T13:03:48;20.30;1.00
5134;DHT22;2585;48.696;10.066;2022-07-29T13:06:30;20.30;4.30
5134;DHT22;2585;48.696;10.066;2022-07-29T13:11:42;20.00;5.50
5134;DHT22;2585;48.696;10.066;2022-07-29T13:14:33;20.00;12.60
5134;DHT22;2585;48.696;10.066;2022-07-29T13:17:09;20.00;17.60
5134;DHT22;2585;48.696;10.066;2022-07-29T13:22:12;19.90;29.30
5134;DHT22;2585;48.696;10.066;2022-07-29T13:27:15;19.90;27.40
5134;DHT22;2585;48.696;10.066;2022-07-29T13:29:42;19.90;20.40
5134;DHT22;2585;48.696;10.066;2022-07-29T13:32:09;20.00;24.20
5134;DHT22;2585;48.696;10.066;2022-07-29T13:34:36;19.90;24.20
5134;DHT22;2585;48.696;10.066;2022-07-29T13:37:03;19.80;12.80
5134;DHT22;2585;48.696;10.066;2022-07-29T13:39:29;19.60;11.40
5134;DHT22;2585;48.696;10.066;2022-07-29T13:41:56;19.60;27.70
5134;DHT22;2585;48.696;10.066;2022-07-29T13:44:25;19.60;58.90
5134;DHT22;2585;48.696;10.066;2022-07-29T13:46:52;19.60;55.10
5134;DHT22;2585;48.696;10.066;2022-07-29T13:49:19;19.70;61.90
5134;DHT22;2585;48.696;10.066;2022-07-29T13:51:46;19.70;60.30
5134;DHT22;2585;48.696;10.066;2022-07-29T13:54:13;19.90;60.80
5134;DHT22;2585;48.696;10.066;2022-07-29T13:56:39;19.90;68.20
5134;DHT22;2585;48.696;10.066;2022-07-29T13:59:06;20.00;69.90
5134;DHT22;2585;48.696;10.066;2022-07-29T14:01:35;20.00;64.20
5134;DHT22;2585;48.696;10.066;2022-07-29T14:04:02;20.10;62.90
5134;DHT22;2585;48.696;10.066;2022-07-29T14:06:29;19.60;77.60
5134;DHT22;2585;48.696;10.066;2022-07-29T14:08:56;19.70;68.90
5134;DHT22;2585;48.696;10.066;2022-07-29T14:11:22;19.60;52.50
5134;DHT22;2585;48.696;10.066;2022-07-29T14:13:49;19.50;62.30
5134;DHT22;2585;48.696;10.066;2022-07-29T14:16:16;19.70;73.50
5134;DHT22;2585;48.696;10.066;2022-07-29T14:18:43;19.70;81.00
5134;DHT22;2585;48.696;10.066;2022-07-29T14:21:10;19.70;85.50
5134;DHT22;2585;48.696;10.066;2022-07-29T14:23:37;19.80;83.30
5134;DHT22;2585;48.696;10.066;2022-07-29T14:26:07;19.90;77.40
5134;DHT22;2585;48.696;10.066;2022-07-29T14:28:41;19.70;70.10
5134;DHT22;2585;48.696;10.066;2022-07-29T14:31:08;19.60;80.00
5134;DHT22;2585;48.696;10.066;2022-07-29T14:33:35;19.90;83.90
5134;DHT22;2585;48.696;10.066;2022-07-29T14:36:02;20.00;88.50
5134;DHT22;2585;48.696;10.066;2022-07-29T14:38:29;20.10;86.10
5134;DHT22;2585;48.696;10.066;2022-07-29T14:40:56;20.00;90.10
5134;DHT22;2585;48.696;10.066;2022-07-29T14:43:23;20.10;91.70
5134;DHT22;2585;48.696;10.066;2022-07-29T14:45:50;20.20;91.20
5134;DHT22;2585;48.696;10.066;2022-07-29T14:48:17;20.40;87.20
5134;DHT22;2585;48.696;10.066;2022-07-29T14:50:43;20.40;85.50
5134;DHT22;2585;48.696;10.066;2022-07-29T14:53:10;20.50;84.60
5134;DHT22;2585;48.696;10.066;2022-07-29T14:55:40;20.50;80.80
5134;DHT22;2585;48.696;10.066;2022-07-29T14:58:08;20.50;75.70
5134;DHT22;2585;48.696;10.066;2022-07-29T15:00:42;20.30;62.50
5134;DHT22;2585;48.696;10.066;2022-07-29T15:03:08;20.40;66.90
5134;DHT22;2585;48.696;10.066;2022-07-29T15:05:49;20.40;70.10
5134;DHT22;2585;48.696;10.066;2022-07-29T15:08:16;20.30;72.90
5134;DHT22;2585;48.696;10.066;2022-07-29T15:10:43;20.30;70.20
5134;DHT22;2585;48.696;10.066;2022-07-29T15:13:10;20.10;65.10
5134;DHT22;2585;48.696;10.066;2022-07-29T15:15:37;20.10;69.50
5134;DHT22;2585;48.696;10.066;2022-07-29T15:18:04;20.10;79.00
5134;DHT22;2585;48.696;10.066;2022-07-29T15:20:31;20.10;84.10
5134;DHT22;2585;48.696;10.066;2022-07-29T15:22:58;20.00;90.30
5134;DHT22;2585;48.696;10.066;2022-07-29T15:25:25;20.10;91.40
5134;DHT22;2585;48.696;10.066;2022-07-29T15:27:54;20.20;91.30
5134;DHT22;2585;48.696;10.066;2022-07-29T15:30:27;20.30;92.00
5134;DHT22;2585;48.696;10.066;2022-07-29T15:33:01;20.20;92.70
5134;DHT22;2585;48.696;10.066;2022-07-29T15:35:28;20.20;93.00
5134;DHT22;2585;48.696;10.066;2022-07-29T15:37:54;20.20;93.10
5134;DHT22;2585;48.696;10.066;2022-07-29T15:40:21;20.30;93.00
5134;DHT22;2585;48.696;10.066;2022-07-29T15:42:48;20.20;93.10
5134;DHT22;2585;48.696;10.066;2022-07-29T15:45:15;20.20;92.90
5134;DHT22;2585;48.696;10.066;2022-07-29T15:47:43;20.20;93.00
5134;DHT22;2585;48.696;10.066;2022-07-29T15:50:10;20.30;93.30
5134;DHT22;2585;48.696;10.066;2022-07-29T15:52:44;20.30;93.50
5134;DHT22;2585;48.696;10.066;2022-07-29T15:55:11;20.30;93.60
5134;DHT22;2585;48.696;10.066;2022-07-29T15:57:38;20.40;93.50
5134;DHT22;2585;48.696;10.066;2022-07-29T16:00:06;20.40;93.20
5134;DHT22;2585;48.696;10.066;2022-07-29T16:02:34;20.30;93.10
5134;DHT22;2585;48.696;10.066;2022-07-29T16:05:01;20.30;93.40
5134;DHT22;2585;48.696;10.066;2022-07-29T16:07:28;20.20;93.50
5134;DHT22;2585;48.696;10.066;2022-07-29T16:09:58;20.10;93.70
5134;DHT22;2585;48.696;10.066;2022-07-29T16:12:24;20.20;93.70
5134;DHT22;2585;48.696;10.066;2022-07-29T16:14:51;20.20;93.70
5134;DHT22;2585;48.696;10.066;2022-07-29T16:17:18;20.30;93.70
5134;DHT22;2585;48.696;10.066;2022-07-29T16:19:45;20.20;93.00
5134;DHT22;2585;48.696;10.066;2022-07-29T16:22:12;20.20;93.00
5134;DHT22;2585;48.696;10.066;2022-07-29T16:24:39;20.20;93.20
5134;DHT22;2585;48.696;10.066;2022-07-29T16:27:06;20.00;91.10
5134;DHT22;2585;48.696;10.066;2022-07-29T16:29:33;19.90;89.70
5134;DHT22;2585;48.696;10.066;2022-07-29T16:32:04;19.90;91.60
5134;DHT22;2585;48.696;10.066;2022-07-29T16:34:31;20.00;92.30
5134;DHT22;2585;48.696;10.066;2022-07-29T16:36:58;19.90;92.50
5134;DHT22;2585;48.696;10.066;2022-07-29T16:39:25;19.90;92.80
5134;DHT22;2585;48.696;10.066;2022-07-29T16:41:52;19.80;93.10
5134;DHT22;2585;48.696;10.066;2022-07-29T16:44:25;19.80;93.30
5134;DHT22;2585;48.696;10.066;2022-07-29T16:46:51;19.80;93.30
5134;DHT22;2585;48.696;10.066;2022-07-29T16:49:24;19.80;93.20